Terminal Aerodrome Forecast
Issued by NWS

Home | Current Version | Previous Version | Text Only | Print | Product List | Glossary On
Versions: 1 2 3 4 5 6 7 8 9 10 11 12 13 14 15 16 17 18 19 20 21 22 23 24 25 26 27 28 29 30 31 32 33 34 35 36 37 38 39 40 41 42 43 44 45 46 47 48 49 50
000
FTUS45 KBOU 022134 AAA
TAFBJC
TAF AMD
KBJC 022134Z 0222/0318 33005KT 5SM HZ FEW015 SCT100 SCT200
     FM030100 27005KT P6SM BKN200
     FM030300 28015G25KT P6SM VCSH SCT060 BKN120
     FM030500 31007KT P6SM FEW060 BKN150
     FM031000 01012KT P6SM VCSH SCT020 BKN060
     FM031500 36010KT 4SM -SN BR SCT008 OVC015
      TEMPO 0316/0318 2SM -SN OVC008=

USA.gov is the U.S. government's official web portal to all federal, state and local government web resources and services.